createdAt,value
2018-07-28T00:01:07.411Z,25.95
2018-07-28T00:03:35.448Z,26.00
2018-07-28T00:06:03.475Z,25.98
2018-07-28T00:08:31.483Z,25.89
2018-07-28T00:10:59.513Z,25.83
2018-07-28T00:13:27.517Z,25.72
2018-07-28T00:15:55.556Z,25.51
2018-07-28T00:18:23.601Z,25.47
2018-07-28T00:20:51.604Z,25.48
2018-07-28T00:23:19.631Z,25.43
2018-07-28T00:25:53.173Z,25.44
2018-07-28T00:28:21.168Z,25.40
2018-07-28T00:30:49.220Z,25.26
2018-07-28T00:33:17.254Z,25.37
2018-07-28T00:35:45.319Z,25.13
2018-07-28T00:38:13.380Z,25.16
2018-07-28T00:40:41.433Z,25.27
2018-07-28T00:43:09.453Z,25.04
2018-07-28T00:45:37.504Z,24.97
2018-07-28T00:48:05.620Z,24.92
2018-07-28T00:50:33.617Z,24.90
2018-07-28T00:53:01.685Z,24.97
2018-07-28T00:55:29.721Z,25.05
2018-07-28T00:57:57.741Z,25.03
2018-07-28T01:00:25.757Z,25.08
2018-07-28T01:02:53.756Z,25.05
2018-07-28T01:05:21.760Z,25.17
2018-07-28T01:07:49.786Z,25.05
2018-07-28T01:10:17.935Z,24.95
2018-07-28T01:12:45.956Z,24.87
2018-07-28T01:15:14.102Z,24.81
2018-07-28T01:17:42.110Z,24.72
2018-07-28T01:20:11.560Z,24.63
2018-07-28T01:22:40.355Z,24.65
2018-07-28T01:25:09.648Z,24.53
2018-07-28T01:27:37.676Z,24.57
2018-07-28T01:30:09.240Z,24.41
2018-07-28T01:32:37.254Z,24.50
2018-07-28T01:35:05.926Z,24.47
2018-07-28T01:37:34.216Z,24.45
2018-07-28T01:40:02.300Z,24.37
2018-07-28T01:42:31.353Z,24.38
2018-07-28T01:44:59.340Z,24.43
2018-07-28T01:47:27.377Z,24.39
2018-07-28T01:49:55.366Z,24.38
2018-07-28T01:52:23.385Z,24.36
2018-07-28T01:54:51.397Z,24.30
2018-07-28T01:57:19.401Z,24.30
2018-07-28T01:59:47.466Z,24.32
2018-07-28T02:02:15.401Z,24.32
2018-07-28T02:04:43.450Z,24.16
2018-07-28T02:07:11.572Z,24.10
2018-07-28T02:09:39.592Z,24.05
2018-07-28T02:12:07.764Z,24.05
2018-07-28T02:14:35.781Z,23.97
2018-07-28T02:17:03.780Z,23.94
2018-07-28T02:19:31.784Z,23.87
2018-07-28T02:22:00.412Z,23.89
2018-07-28T02:24:28.516Z,23.81
2018-07-28T02:26:56.541Z,23.74
2018-07-28T02:29:24.554Z,23.80
2018-07-28T02:31:52.595Z,23.66
2018-07-28T02:34:20.609Z,23.55
2018-07-28T02:36:48.609Z,23.51
2018-07-28T02:39:16.628Z,23.51
2018-07-28T02:41:44.655Z,23.46
2018-07-28T02:44:12.653Z,23.51
2018-07-28T02:46:40.655Z,23.36
2018-07-28T02:49:08.700Z,23.33
2018-07-28T02:51:36.706Z,23.35
2018-07-28T02:54:04.712Z,23.35
2018-07-28T02:56:32.747Z,23.36
2018-07-28T02:59:00.725Z,23.32
2018-07-28T03:01:29.832Z,23.27
2018-07-28T03:03:57.897Z,23.36
2018-07-28T03:06:25.894Z,23.43
2018-07-28T03:08:54.200Z,23.42
2018-07-28T03:11:22.251Z,23.35
2018-07-28T03:13:50.329Z,23.40
2018-07-28T03:16:18.348Z,23.44
2018-07-28T03:18:46.401Z,23.30
2018-07-28T03:21:14.408Z,23.23
2018-07-28T03:23:42.486Z,23.21
2018-07-28T03:26:10.484Z,23.19
2018-07-28T03:28:38.476Z,23.11
2018-07-28T03:31:06.476Z,23.05
2018-07-28T03:33:34.473Z,23.09
2018-07-28T03:36:02.509Z,23.19
2018-07-28T03:38:30.518Z,23.25
2018-07-28T03:40:58.536Z,23.33
2018-07-28T03:43:26.538Z,23.35
2018-07-28T03:45:54.544Z,23.42
2018-07-28T03:48:22.603Z,23.48
2018-07-28T03:50:50.636Z,23.31
2018-07-28T03:53:18.636Z,23.41
2018-07-28T03:55:46.636Z,23.50
2018-07-28T03:58:14.642Z,23.51
2018-07-28T04:00:42.737Z,23.61
2018-07-28T04:03:10.886Z,23.59
2018-07-28T04:05:38.925Z,23.49
2018-07-28T04:08:06.919Z,23.55
2018-07-28T04:10:34.932Z,23.55
2018-07-28T04:13:02.944Z,23.64
2018-07-28T04:15:30.975Z,23.71
2018-07-28T04:17:59.062Z,23.84
2018-07-28T04:20:27.970Z,24.06
2018-07-28T04:22:56.153Z,24.11
2018-07-28T04:25:24.452Z,24.29
2018-07-28T04:27:52.592Z,24.26
2018-07-28T04:30:20.600Z,24.18
2018-07-28T04:32:48.632Z,24.22
2018-07-28T04:35:16.632Z,24.23
2018-07-28T04:37:44.663Z,24.25
2018-07-28T04:40:13.060Z,24.16
2018-07-28T04:42:42.149Z,24.26
2018-07-28T04:45:10.188Z,24.30
2018-07-28T04:47:39.180Z,24.37
2018-07-28T04:50:07.494Z,24.47
2018-07-28T04:52:35.533Z,24.72
2018-07-28T04:55:03.996Z,24.71
2018-07-28T04:57:31.971Z,24.79
2018-07-28T04:59:59.994Z,24.91
2018-07-28T05:02:28.563Z,24.96
2018-07-28T05:04:57.051Z,24.91
2018-07-28T05:07:25.494Z,24.90
2018-07-28T05:09:53.600Z,24.95
2018-07-28T05:12:21.676Z,25.02
2018-07-28T05:14:49.676Z,25.14
2018-07-28T05:17:17.766Z,25.17
2018-07-28T05:19:45.830Z,25.09
2018-07-28T05:22:13.860Z,24.88
2018-07-28T05:24:42.952Z,24.99
2018-07-28T05:27:10.944Z,25.13
2018-07-28T05:29:39.008Z,26.09
2018-07-28T05:32:06.920Z,27.45
2018-07-28T05:34:34.904Z,28.57
2018-07-28T05:37:02.926Z,29.24
2018-07-28T05:39:30.884Z,29.85
2018-07-28T05:41:58.928Z,30.09
2018-07-28T05:44:26.923Z,30.74
2018-07-28T05:46:57.005Z,31.25
2018-07-28T05:49:25.006Z,30.97
2018-07-28T05:51:53.089Z,31.13
2018-07-28T05:54:21.121Z,31.89
2018-07-28T05:56:49.209Z,32.42
2018-07-28T05:59:18.325Z,32.61
2018-07-28T06:01:46.332Z,32.98
2018-07-28T06:04:14.326Z,33.90
2018-07-28T06:06:42.324Z,33.91
2018-07-28T06:09:10.652Z,33.51
2018-07-28T06:11:38.999Z,33.16
2018-07-28T06:16:41.393Z,34.12
2018-07-28T06:19:09.420Z,33.68
2018-07-28T06:21:37.432Z,32.46
2018-07-28T06:24:05.532Z,30.90
2018-07-28T06:26:33.526Z,29.50
2018-07-28T06:29:01.516Z,28.83
2018-07-28T06:31:29.545Z,28.12
2018-07-28T06:33:58.585Z,27.52
2018-07-28T06:36:26.619Z,27.25
2018-07-28T06:38:54.578Z,27.00
2018-07-28T06:41:22.649Z,26.79
2018-07-28T06:43:50.650Z,27.07
2018-07-28T06:46:18.822Z,27.60
2018-07-28T06:48:46.828Z,28.83
2018-07-28T06:51:14.809Z,30.03
2018-07-28T06:53:42.915Z,30.84
2018-07-28T06:56:10.940Z,31.23
2018-07-28T06:58:39.073Z,31.53
2018-07-28T07:01:07.050Z,31.83
2018-07-28T07:03:35.225Z,32.34
2018-07-28T07:06:03.268Z,33.22
2018-07-28T07:08:31.307Z,32.89
2018-07-28T07:10:59.339Z,31.64
2018-07-28T07:13:28.331Z,31.30
2018-07-28T07:15:56.368Z,31.74
2018-07-28T07:18:24.401Z,32.56
2018-07-28T07:20:52.547Z,32.89
2018-07-28T07:23:20.604Z,33.70
2018-07-28T07:25:48.620Z,34.39
2018-07-28T07:28:16.619Z,34.57
2018-07-28T07:30:44.739Z,34.89
2018-07-28T07:33:12.768Z,34.10
2018-07-28T07:35:40.748Z,33.09
2018-07-28T07:38:08.754Z,31.61
2018-07-28T07:40:36.967Z,30.76
2018-07-28T07:43:05.220Z,30.02
2018-07-28T07:45:33.221Z,29.37
2018-07-28T07:48:01.251Z,28.78
2018-07-28T07:50:29.272Z,28.55
2018-07-28T07:52:57.267Z,28.38
2018-07-28T07:55:25.677Z,28.05
2018-07-28T07:57:53.725Z,27.88
2018-07-28T08:00:21.707Z,27.89
2018-07-28T08:02:49.697Z,27.96
2018-07-28T08:05:17.689Z,27.96
2018-07-28T08:07:45.680Z,27.96
2018-07-28T08:10:14.688Z,27.89
2018-07-28T08:12:42.721Z,28.03
2018-07-28T08:15:10.736Z,28.01
2018-07-28T08:17:38.732Z,28.00
2018-07-28T08:20:06.806Z,28.12
2018-07-28T08:22:34.815Z,28.05
2018-07-28T08:25:03.580Z,28.25
2018-07-28T08:27:31.551Z,28.44
2018-07-28T08:29:59.545Z,28.78
2018-07-28T08:32:27.592Z,29.27
2018-07-28T08:34:55.584Z,29.60
2018-07-28T08:37:23.603Z,29.54
2018-07-28T08:39:51.760Z,29.74
2018-07-28T08:42:19.740Z,30.24
2018-07-28T08:44:47.734Z,30.79
2018-07-28T08:47:15.762Z,31.32
2018-07-28T08:49:43.784Z,31.63
2018-07-28T08:52:11.768Z,31.07
2018-07-28T08:54:39.918Z,30.90
2018-07-28T08:57:08.046Z,30.92
2018-07-28T08:59:36.057Z,31.47
2018-07-28T09:02:04.072Z,32.05
2018-07-28T09:04:32.180Z,32.03
2018-07-28T09:07:00.216Z,32.15
2018-07-28T09:09:28.275Z,32.24
2018-07-28T09:11:56.446Z,32.44
2018-07-28T09:14:24.451Z,31.69
2018-07-28T09:16:52.443Z,31.58
2018-07-28T09:19:20.456Z,31.74
2018-07-28T09:21:48.505Z,31.96
2018-07-28T09:24:16.669Z,31.96
2018-07-28T09:26:44.672Z,31.91
2018-07-28T09:29:12.776Z,31.99
2018-07-28T09:31:40.745Z,32.11
2018-07-28T09:34:09.067Z,32.08
2018-07-28T09:36:37.049Z,32.13
2018-07-28T09:39:08.256Z,32.21
2018-07-28T09:41:36.378Z,32.23
2018-07-28T09:44:04.376Z,32.12
2018-07-28T09:46:32.404Z,31.66
2018-07-28T09:49:00.388Z,31.82
2018-07-28T09:51:28.411Z,31.80
2018-07-28T09:53:56.396Z,31.61
2018-07-28T09:56:25.220Z,31.90
2018-07-28T09:58:53.273Z,32.11
2018-07-28T10:01:23.172Z,32.39
2018-07-28T10:03:51.664Z,32.62
2018-07-28T10:06:19.648Z,33.01
2018-07-28T10:08:47.657Z,33.30
2018-07-28T10:11:15.828Z,33.44
2018-07-28T10:13:43.858Z,33.66
2018-07-28T10:16:12.160Z,34.00
2018-07-28T10:18:40.278Z,33.81
2018-07-28T10:21:08.268Z,33.71
2018-07-28T10:23:36.508Z,33.76
2018-07-28T10:26:04.512Z,33.80
2018-07-28T10:28:32.484Z,33.72
2018-07-28T10:31:00.513Z,33.69
2018-07-28T10:33:29.549Z,33.96
2018-07-28T10:35:57.524Z,34.08
2018-07-28T10:38:25.504Z,34.21
2018-07-28T10:40:53.572Z,34.33
2018-07-28T10:43:21.597Z,34.19
2018-07-28T10:45:49.648Z,34.38
2018-07-28T10:48:17.676Z,34.65
2018-07-28T10:50:45.807Z,34.95
2018-07-28T10:53:13.804Z,35.19
2018-07-28T10:55:41.846Z,35.13
2018-07-28T10:58:09.828Z,35.25
2018-07-28T11:00:37.832Z,35.22
2018-07-28T11:03:05.805Z,35.52
2018-07-28T11:05:33.782Z,35.77
2018-07-28T11:08:01.878Z,35.75
2018-07-28T11:10:29.856Z,35.59
2018-07-28T11:12:57.893Z,35.60
2018-07-28T11:15:26.901Z,35.68
2018-07-28T11:17:54.880Z,35.87
2018-07-28T11:20:22.948Z,35.81
2018-07-28T11:22:50.921Z,36.05
2018-07-28T11:25:18.928Z,35.90
2018-07-28T11:27:46.896Z,35.80
2018-07-28T11:30:15.001Z,35.99
2018-07-28T11:32:54.589Z,35.95
2018-07-28T11:35:34.206Z,36.22
2018-07-28T11:38:41.445Z,36.23
2018-07-28T11:41:20.886Z,36.24
2018-07-28T11:44:00.348Z,36.45
2018-07-28T11:46:28.497Z,36.06
2018-07-28T11:48:56.468Z,35.82
2018-07-28T11:51:24.502Z,35.03
2018-07-28T11:53:52.425Z,34.45
2018-07-28T11:56:20.544Z,34.57
2018-07-28T11:58:48.568Z,34.52
2018-07-28T12:01:16.572Z,34.40
2018-07-28T12:03:44.564Z,34.29
2018-07-28T12:06:12.537Z,34.20
2018-07-28T12:08:40.531Z,33.92
2018-07-28T12:11:08.588Z,33.20
2018-07-28T12:13:36.593Z,32.73
2018-07-28T12:16:04.669Z,32.17
2018-07-28T12:18:32.650Z,31.26
2018-07-28T12:21:00.650Z,30.80
2018-07-28T12:23:28.633Z,29.96
2018-07-28T12:25:56.690Z,28.96
2018-07-28T12:28:24.764Z,28.11
2018-07-28T12:30:52.816Z,26.94
2018-07-28T12:33:20.809Z,26.19
2018-07-28T12:35:48.826Z,25.97
2018-07-28T12:38:16.844Z,25.21
2018-07-28T12:40:44.877Z,24.92
2018-07-28T12:43:12.900Z,24.77
2018-07-28T12:45:40.896Z,24.56
2018-07-28T12:48:08.989Z,24.70
2018-07-28T12:50:37.136Z,24.51
2018-07-28T12:53:05.177Z,24.44
2018-07-28T12:55:33.259Z,24.55
2018-07-28T12:58:01.204Z,24.41
2018-07-28T13:00:29.189Z,24.55
2018-07-28T13:02:57.228Z,24.47
2018-07-28T13:05:25.228Z,24.47
2018-07-28T13:07:53.228Z,24.38
2018-07-28T13:10:21.225Z,24.55
2018-07-28T13:12:49.248Z,24.77
2018-07-28T13:15:17.272Z,24.87
2018-07-28T13:17:45.346Z,24.81
2018-07-28T13:20:13.347Z,24.78
2018-07-28T13:22:41.370Z,24.66
2018-07-28T13:25:09.425Z,24.46
2018-07-28T13:27:37.613Z,24.16
2018-07-28T13:30:06.157Z,24.08
2018-07-28T13:32:34.218Z,24.00
2018-07-28T13:35:02.271Z,23.97
2018-07-28T13:37:30.280Z,23.79
2018-07-28T13:39:58.282Z,23.89
2018-07-28T13:42:26.501Z,23.89
2018-07-28T13:44:54.532Z,23.93
2018-07-28T13:47:22.621Z,23.97
2018-07-28T13:49:50.737Z,24.05
2018-07-28T13:52:18.828Z,24.19
2018-07-28T13:54:46.892Z,24.19
2018-07-28T13:57:14.926Z,24.40
2018-07-28T13:59:42.950Z,24.45
2018-07-28T14:02:11.068Z,24.55
2018-07-28T14:04:39.124Z,24.59
2018-07-28T14:07:07.218Z,24.62
2018-07-28T14:09:35.332Z,24.63
2018-07-28T14:12:03.489Z,24.77
2018-07-28T14:14:31.660Z,24.82
2018-07-28T14:16:59.795Z,24.75
2018-07-28T14:19:28.854Z,24.73
2018-07-28T14:21:56.891Z,24.85
2018-07-28T14:24:24.884Z,24.97
2018-07-28T14:26:52.996Z,25.21
2018-07-28T14:29:21.022Z,25.43
2018-07-28T14:31:49.037Z,25.74
2018-07-28T14:34:17.109Z,26.05
2018-07-28T14:36:45.152Z,26.24
2018-07-28T14:39:13.156Z,26.43
2018-07-28T14:41:41.201Z,26.49
2018-07-28T14:44:09.213Z,26.63
2018-07-28T14:46:37.243Z,26.59
2018-07-28T14:49:05.326Z,26.56
2018-07-28T14:51:33.392Z,26.92
2018-07-28T14:54:01.433Z,27.21
2018-07-28T14:56:29.481Z,27.45
2018-07-28T14:58:57.472Z,27.61
2018-07-28T15:01:25.808Z,27.79
2018-07-28T15:03:53.765Z,28.04
2018-07-28T15:06:21.758Z,27.92
2018-07-28T15:08:49.760Z,27.83
2018-07-28T15:11:17.757Z,28.14
2018-07-28T15:13:45.823Z,28.06
2018-07-28T15:16:13.797Z,27.89
2018-07-28T15:18:41.865Z,27.94
2018-07-28T15:21:09.993Z,27.88
2018-07-28T15:23:39.052Z,28.15
2018-07-28T15:26:07.164Z,28.24
2018-07-28T15:28:35.294Z,28.05
2018-07-28T15:31:03.264Z,27.92
2018-07-28T15:33:31.273Z,27.69
2018-07-28T15:35:59.280Z,27.67
2018-07-28T15:38:27.341Z,27.44
2018-07-28T15:40:55.380Z,26.99
2018-07-28T15:43:23.559Z,26.95
2018-07-28T15:45:51.564Z,26.90
2018-07-28T15:48:19.824Z,27.01
2018-07-28T15:50:47.860Z,27.04
2018-07-28T15:53:15.915Z,27.05
2018-07-28T15:55:43.932Z,27.08
2018-07-28T15:58:11.976Z,27.36
2018-07-28T16:00:40.016Z,27.63
2018-07-28T16:03:08.156Z,27.80
2018-07-28T16:05:36.238Z,27.94
2018-07-28T16:08:04.244Z,27.87
2018-07-28T16:10:32.250Z,28.04
2018-07-28T16:13:00.256Z,28.27
2018-07-28T16:15:28.276Z,28.28
2018-07-28T16:17:56.318Z,28.18
2018-07-28T16:20:24.429Z,27.77
2018-07-28T16:22:52.608Z,27.78
2018-07-28T16:25:20.712Z,27.55
2018-07-28T16:27:48.902Z,27.38
2018-07-28T16:30:16.776Z,27.42
2018-07-28T16:32:44.749Z,27.17
2018-07-28T16:35:12.753Z,26.72
2018-07-28T16:37:40.740Z,26.26
2018-07-28T16:40:08.813Z,26.10
2018-07-28T16:42:36.820Z,25.84
2018-07-28T16:45:04.912Z,26.01
2018-07-28T16:47:32.933Z,25.86
2018-07-28T16:50:00.972Z,26.01
2018-07-28T16:52:29.196Z,26.00
2018-07-28T16:54:57.267Z,25.90
2018-07-28T16:57:26.157Z,25.77
2018-07-28T16:59:54.340Z,25.87
2018-07-28T17:02:22.343Z,25.62
2018-07-28T17:04:50.453Z,25.39
2018-07-28T17:07:18.512Z,25.10
2018-07-28T17:09:46.619Z,25.03
2018-07-28T17:12:15.487Z,25.12
2018-07-28T17:14:43.524Z,25.38
2018-07-28T17:17:11.519Z,25.12
2018-07-28T17:19:39.620Z,25.24
2018-07-28T17:22:07.719Z,25.10
2018-07-28T17:24:35.740Z,25.30
2018-07-28T17:27:03.810Z,25.38
2018-07-28T17:29:31.868Z,24.88
2018-07-28T17:31:59.850Z,24.72
2018-07-28T17:34:27.844Z,24.54
2018-07-28T17:36:55.893Z,24.72
2018-07-28T17:39:23.938Z,24.66
2018-07-28T17:41:52.044Z,24.52
2018-07-28T17:44:21.172Z,24.30
2018-07-28T17:46:49.220Z,24.15
2018-07-28T17:49:17.269Z,24.32
2018-07-28T17:51:45.348Z,24.34
2018-07-28T17:54:13.428Z,23.90
2018-07-28T17:56:42.496Z,23.47
2018-07-28T17:59:10.636Z,23.02
2018-07-28T18:01:38.856Z,22.68
2018-07-28T18:04:06.974Z,22.62
2018-07-28T18:06:35.040Z,22.56
2018-07-28T18:09:03.158Z,22.29
2018-07-28T18:11:31.213Z,22.20
2018-07-28T18:13:59.288Z,21.92
2018-07-28T18:16:28.522Z,21.72
2018-07-28T18:18:57.573Z,21.58
2018-07-28T18:21:25.639Z,21.48
2018-07-28T18:23:53.709Z,21.52
2018-07-28T18:26:21.682Z,21.36
2018-07-28T18:28:49.833Z,21.25
2018-07-28T18:31:17.854Z,21.20
2018-07-28T18:33:45.816Z,21.23
2018-07-28T18:36:13.944Z,21.49
2018-07-28T18:38:41.973Z,21.59
2018-07-28T18:41:09.968Z,21.46
2018-07-28T18:43:37.944Z,21.41
2018-07-28T18:46:05.977Z,21.52
2018-07-28T18:48:33.957Z,21.53
2018-07-28T18:51:01.965Z,21.44
2018-07-28T18:53:29.989Z,21.25
2018-07-28T18:55:58.056Z,21.08
2018-07-28T18:58:26.156Z,21.02
2018-07-28T19:00:54.172Z,21.22
2018-07-28T19:03:22.253Z,21.53
2018-07-28T19:05:50.405Z,21.73
2018-07-28T19:08:18.471Z,21.82
2018-07-28T19:10:46.495Z,21.82
2018-07-28T19:13:20.017Z,21.76
2018-07-28T19:15:48.513Z,21.76
2018-07-28T19:18:21.976Z,21.68
2018-07-28T19:20:50.046Z,21.75
2018-07-28T19:23:24.485Z,21.84
2018-07-28T19:25:52.481Z,21.70
2018-07-28T19:28:26.660Z,21.67
2018-07-28T19:30:54.724Z,21.68
2018-07-28T19:33:22.757Z,21.70
2018-07-28T19:35:56.328Z,21.72
2018-07-28T19:38:24.346Z,21.68
2018-07-28T19:40:52.383Z,21.75
2018-07-28T19:43:20.368Z,21.79
2018-07-28T19:45:48.409Z,21.87
2018-07-28T19:48:16.404Z,21.93
2018-07-28T19:50:44.506Z,21.97
2018-07-28T19:53:12.513Z,21.88
2018-07-28T19:55:40.691Z,21.87
2018-07-28T19:58:08.758Z,21.92
2018-07-28T20:00:36.862Z,21.87
2018-07-28T20:03:05.075Z,21.72
2018-07-28T20:05:33.135Z,21.78
2018-07-28T20:08:01.162Z,21.86
2018-07-28T20:10:29.153Z,21.74
2018-07-28T20:12:57.132Z,21.85
2018-07-28T20:15:25.105Z,21.89
2018-07-28T20:17:53.125Z,21.92
2018-07-28T20:20:21.271Z,21.81
2018-07-28T20:22:49.268Z,21.85
2018-07-28T20:25:17.280Z,21.83
2018-07-28T20:27:45.313Z,21.79
2018-07-28T20:30:13.300Z,21.77
2018-07-28T20:32:41.367Z,21.58
2018-07-28T20:35:09.818Z,21.48
2018-07-28T20:37:37.860Z,21.50
2018-07-28T20:40:05.914Z,21.49
2018-07-28T20:42:34.001Z,21.43
2018-07-28T20:45:02.037Z,21.47
2018-07-28T20:47:30.066Z,21.40
2018-07-28T20:49:58.026Z,21.31
2018-07-28T20:52:26.041Z,21.48
2018-07-28T20:54:54.042Z,21.53
2018-07-28T20:57:22.053Z,21.47
2018-07-28T20:59:50.077Z,21.35
2018-07-28T21:02:18.060Z,21.21
2018-07-28T21:04:46.064Z,21.15
2018-07-28T21:07:14.061Z,21.19
2018-07-28T21:09:42.053Z,21.15
2018-07-28T21:12:10.137Z,21.17
2018-07-28T21:14:38.220Z,21.17
2018-07-28T21:17:06.291Z,21.25
2018-07-28T21:19:34.423Z,21.33
2018-07-28T21:22:02.525Z,21.30
2018-07-28T21:24:30.633Z,21.28
2018-07-28T21:26:58.609Z,21.36
2018-07-28T21:29:27.621Z,21.31
2018-07-28T21:31:55.663Z,21.34
2018-07-28T21:34:23.672Z,21.24
2018-07-28T21:36:51.680Z,21.30
2018-07-28T21:39:19.672Z,21.35
2018-07-28T21:41:47.692Z,21.41
2018-07-28T21:44:15.674Z,21.40
2018-07-28T21:46:43.674Z,21.36
2018-07-28T21:49:11.676Z,21.39
2018-07-28T21:51:39.708Z,21.45
2018-07-28T21:54:07.784Z,21.42
2018-07-28T21:56:35.848Z,21.38
2018-07-28T21:59:03.938Z,21.37
2018-07-28T22:01:31.987Z,21.29
2018-07-28T22:04:02.349Z,21.15
2018-07-28T22:06:31.549Z,21.17
2018-07-28T22:08:59.541Z,21.10
2018-07-28T22:11:27.573Z,20.78
2018-07-28T22:13:55.586Z,20.66
2018-07-28T22:16:23.560Z,20.66
2018-07-28T22:18:51.568Z,20.64
2018-07-28T22:21:19.614Z,20.39
2018-07-28T22:26:18.154Z,20.64
2018-07-28T22:28:46.152Z,20.64
2018-07-28T22:31:14.194Z,20.69
2018-07-28T22:33:42.197Z,20.61
2018-07-28T22:36:11.261Z,20.56
2018-07-28T22:38:39.321Z,20.56
2018-07-28T22:41:07.453Z,20.61
2018-07-28T22:43:35.853Z,20.70
2018-07-28T22:46:03.863Z,20.65
2018-07-28T22:48:31.876Z,20.14
2018-07-28T22:50:59.888Z,20.34
2018-07-28T22:53:27.891Z,20.42
2018-07-28T22:55:55.906Z,20.46
2018-07-28T22:58:23.984Z,20.43
2018-07-28T23:00:51.980Z,20.44
2018-07-28T23:03:20.025Z,20.37
2018-07-28T23:05:48.023Z,20.26
2018-07-28T23:08:16.021Z,20.21
2018-07-28T23:10:44.012Z,20.10
2018-07-28T23:13:12.011Z,20.12
2018-07-28T23:15:40.001Z,20.11
2018-07-28T23:18:08.052Z,19.97
2018-07-28T23:20:36.089Z,19.91
2018-07-28T23:23:04.124Z,19.82
2018-07-28T23:25:32.112Z,19.79
2018-07-28T23:28:00.149Z,19.46
2018-07-28T23:30:28.129Z,19.40
2018-07-28T23:32:56.192Z,19.06
2018-07-28T23:35:24.229Z,19.16
2018-07-28T23:37:52.225Z,18.71
2018-07-28T23:40:20.238Z,18.63
2018-07-28T23:42:48.248Z,18.73
2018-07-28T23:45:16.259Z,18.95
2018-07-28T23:47:44.323Z,19.08
2018-07-28T23:50:12.321Z,19.16
2018-07-28T23:52:40.477Z,19.13
2018-07-28T23:55:08.496Z,19.16
2018-07-28T23:57:36.557Z,19.09
